createdAt,value
2023-03-06T00:00:26.988Z,66.79
2023-03-06T00:03:14.143Z,66.45
2023-03-06T00:05:41.076Z,66.57
2023-03-06T00:08:08.330Z,66.54
2023-03-06T00:10:35.263Z,66.46
2023-03-06T00:13:06.893Z,66.60
2023-03-06T00:15:33.736Z,66.54
2023-03-06T00:18:07.264Z,66.57
2023-03-06T00:20:35.402Z,66.82
2023-03-06T00:23:02.859Z,66.23
2023-03-06T00:25:29.688Z,65.12
2023-03-06T00:27:56.979Z,65.34
2023-03-06T00:30:25.290Z,65.44
2023-03-06T00:32:52.853Z,65.01
2023-03-06T00:35:20.067Z,65.02
2023-03-06T00:37:47.188Z,65.03
2023-03-06T00:40:17.106Z,64.65
2023-03-06T00:42:44.605Z,64.73
2023-03-06T00:45:11.656Z,64.71
2023-03-06T00:47:39.092Z,65.01
2023-03-06T00:50:06.253Z,65.49
2023-03-06T00:52:33.447Z,66.12
2023-03-06T00:55:00.467Z,66.55
2023-03-06T00:57:27.478Z,66.94
2023-03-06T00:59:54.325Z,66.75
2023-03-06T01:02:21.426Z,67.00
2023-03-06T01:04:48.266Z,66.94
2023-03-06T01:07:15.317Z,67.30
2023-03-06T01:09:42.098Z,67.02
2023-03-06T01:12:09.397Z,66.67
2023-03-06T01:14:36.168Z,66.38
2023-03-06T01:17:03.538Z,66.37
2023-03-06T01:19:30.478Z,65.77
2023-03-06T01:21:57.673Z,65.68
2023-03-06T01:24:25.831Z,65.56
2023-03-06T01:26:52.943Z,65.65
2023-03-06T01:29:20.227Z,65.38
2023-03-06T01:31:47.629Z,65.62
2023-03-06T01:34:14.443Z,65.25
2023-03-06T01:36:41.642Z,65.37
2023-03-06T01:39:08.497Z,65.27
2023-03-06T01:41:35.791Z,65.53
2023-03-06T01:44:02.675Z,65.39
2023-03-06T01:46:33.345Z,65.18
2023-03-06T01:49:08.538Z,65.14
2023-03-06T01:51:48.791Z,64.93
2023-03-06T01:54:22.038Z,65.03
2023-03-06T01:56:53.126Z,65.32
2023-03-06T01:59:21.857Z,65.00
2023-03-06T02:01:50.355Z,64.88
2023-03-06T02:04:18.282Z,64.53
2023-03-06T02:06:47.859Z,63.94
2023-03-06T02:09:15.220Z,64.34
2023-03-06T02:11:44.148Z,64.50
2023-03-06T02:14:17.162Z,64.84
2023-03-06T02:16:44.940Z,64.50
2023-03-06T02:19:37.794Z,65.13
2023-03-06T02:22:04.946Z,64.95
2023-03-06T02:24:45.684Z,64.70
2023-03-06T02:27:14.965Z,64.55
2023-03-06T02:29:43.062Z,64.21
2023-03-06T02:32:10.612Z,63.77
2023-03-06T02:34:37.418Z,64.16
2023-03-06T02:37:11.000Z,64.49
2023-03-06T02:39:44.720Z,64.09
2023-03-06T02:42:18.320Z,63.90
2023-03-06T02:44:45.517Z,64.08
2023-03-06T02:47:12.574Z,64.16
2023-03-06T02:49:39.374Z,63.99
2023-03-06T02:52:07.675Z,63.96
2023-03-06T02:54:34.519Z,63.85
2023-03-06T02:57:01.585Z,63.28
2023-03-06T02:59:28.365Z,62.74
2023-03-06T03:01:55.476Z,62.60
2023-03-06T03:04:22.451Z,62.59
2023-03-06T03:06:49.488Z,63.15
2023-03-06T03:09:16.607Z,62.86
2023-03-06T03:11:43.683Z,62.93
2023-03-06T03:14:10.524Z,62.73
2023-03-06T03:16:39.215Z,62.30
2023-03-06T03:19:06.100Z,62.65
2023-03-06T03:21:33.158Z,62.96
2023-03-06T03:23:59.893Z,63.29
2023-03-06T03:26:27.050Z,63.03
2023-03-06T03:28:53.852Z,62.50
2023-03-06T03:31:21.054Z,62.63
2023-03-06T03:33:47.854Z,63.37
2023-03-06T03:36:14.998Z,63.34
2023-03-06T03:38:42.090Z,63.61
2023-03-06T03:41:09.154Z,63.87
2023-03-06T03:43:35.891Z,63.81
2023-03-06T03:46:03.052Z,64.01
2023-03-06T03:48:29.845Z,64.17
2023-03-06T03:51:05.237Z,64.49
2023-03-06T03:53:32.045Z,64.57
2023-03-06T03:55:59.160Z,64.82
2023-03-06T03:58:25.981Z,64.85
2023-03-06T04:00:53.070Z,64.63
2023-03-06T04:03:19.850Z,64.67
2023-03-06T04:05:46.913Z,64.77
2023-03-06T04:08:13.813Z,64.86
2023-03-06T04:10:40.868Z,64.79
2023-03-06T04:13:09.991Z,65.44
2023-03-06T04:15:37.272Z,65.21
2023-03-06T04:18:04.185Z,65.03
2023-03-06T04:20:31.392Z,65.38
2023-03-06T04:22:58.174Z,65.38
2023-03-06T04:25:25.303Z,65.34
2023-03-06T04:27:52.133Z,65.54
2023-03-06T04:30:19.278Z,65.64
2023-03-06T04:32:46.014Z,66.08
2023-03-06T04:35:13.130Z,65.84
2023-03-06T04:37:39.877Z,66.02
2023-03-06T04:40:09.388Z,66.27
2023-03-06T04:42:36.471Z,66.56
2023-03-06T04:45:03.722Z,67.35
2023-03-06T04:47:30.483Z,67.66
2023-03-06T04:49:57.510Z,68.44
2023-03-06T04:52:24.275Z,68.61
2023-03-06T04:54:51.463Z,69.04
2023-03-06T04:57:18.276Z,69.55
2023-03-06T04:59:45.307Z,69.67
2023-03-06T05:02:12.501Z,70.55
2023-03-06T05:04:39.659Z,70.71
2023-03-06T05:07:06.474Z,70.89
2023-03-06T05:09:34.503Z,71.62
2023-03-06T05:12:01.386Z,72.05
2023-03-06T05:14:31.791Z,72.46
2023-03-06T05:16:58.577Z,72.16
2023-03-06T05:19:25.712Z,72.47
2023-03-06T05:21:52.504Z,72.83
2023-03-06T05:24:19.633Z,72.53
2023-03-06T05:26:46.435Z,72.45
2023-03-06T05:29:13.565Z,73.05
2023-03-06T05:31:40.347Z,73.35
2023-03-06T05:34:07.417Z,73.71
2023-03-06T05:36:34.249Z,73.69
2023-03-06T05:39:01.297Z,73.89
2023-03-06T05:41:28.080Z,73.87
2023-03-06T05:43:56.929Z,73.85
2023-03-06T05:46:23.801Z,74.26
2023-03-06T05:48:53.138Z,74.95
2023-03-06T05:51:19.976Z,74.99
2023-03-06T05:53:47.446Z,75.51
2023-03-06T05:56:14.456Z,76.83
2023-03-06T05:58:41.810Z,77.17
2023-03-06T06:01:11.149Z,77.69
2023-03-06T06:03:38.866Z,77.39
2023-03-06T06:06:07.938Z,78.73
2023-03-06T06:08:35.617Z,78.09
2023-03-06T06:11:04.144Z,77.72
2023-03-06T06:13:31.918Z,78.35
2023-03-06T06:15:58.704Z,79.83
2023-03-06T06:18:25.883Z,80.30
2023-03-06T06:20:54.415Z,81.05
2023-03-06T06:23:22.981Z,81.61
2023-03-06T06:25:49.782Z,81.97
2023-03-06T06:28:16.906Z,81.92
2023-03-06T06:30:43.650Z,81.68
2023-03-06T06:33:10.675Z,82.34
2023-03-06T06:35:37.657Z,82.98
2023-03-06T06:38:04.719Z,82.30
2023-03-06T06:40:31.628Z,83.08
2023-03-06T06:42:58.779Z,84.49
2023-03-06T06:45:25.561Z,85.52
2023-03-06T06:47:52.672Z,84.99
2023-03-06T06:50:19.542Z,84.12
2023-03-06T06:52:46.681Z,84.98
2023-03-06T06:55:13.583Z,85.67
2023-03-06T06:57:42.165Z,86.09
2023-03-06T07:00:09.905Z,85.99
2023-03-06T07:02:36.996Z,85.82
2023-03-06T07:05:05.453Z,86.01
2023-03-06T07:07:38.036Z,85.46
2023-03-06T07:10:11.568Z,85.73
2023-03-06T07:12:38.535Z,86.27
2023-03-06T07:15:06.397Z,85.72
2023-03-06T07:17:33.491Z,85.66
2023-03-06T07:20:00.406Z,85.03
2023-03-06T07:22:29.078Z,85.51
2023-03-06T07:24:57.142Z,85.97
2023-03-06T07:27:26.138Z,85.41
2023-03-06T07:29:52.945Z,85.53
2023-03-06T07:32:21.021Z,85.67
2023-03-06T07:34:48.355Z,85.01
2023-03-06T07:37:15.440Z,84.79
2023-03-06T07:39:42.308Z,84.58
2023-03-06T07:42:13.434Z,85.26
2023-03-06T07:44:40.501Z,84.73
2023-03-06T07:47:07.905Z,84.29
2023-03-06T07:49:35.292Z,85.43
2023-03-06T07:52:02.398Z,85.29
2023-03-06T07:54:30.751Z,86.21
2023-03-06T07:56:58.141Z,85.35
2023-03-06T07:59:25.705Z,83.41
2023-03-06T08:01:55.544Z,84.08
2023-03-06T08:04:22.363Z,84.23
2023-03-06T08:06:49.437Z,84.73
2023-03-06T08:09:16.249Z,85.35
2023-03-06T08:11:45.296Z,85.88
2023-03-06T08:14:12.176Z,86.54
2023-03-06T08:16:39.400Z,87.42
2023-03-06T08:19:06.257Z,86.51
2023-03-06T08:21:33.398Z,86.58
2023-03-06T08:24:00.240Z,88.72
2023-03-06T08:26:29.831Z,88.27
2023-03-06T08:28:58.622Z,87.57
2023-03-06T08:31:35.042Z,87.43
2023-03-06T08:34:04.999Z,87.94
2023-03-06T08:36:32.254Z,88.42
2023-03-06T08:38:59.556Z,86.65
2023-03-06T08:41:27.169Z,89.04
2023-03-06T08:43:54.335Z,88.68
2023-03-06T08:46:23.816Z,86.31
2023-03-06T08:48:50.642Z,86.18
2023-03-06T08:51:18.924Z,87.36
2023-03-06T08:53:46.505Z,88.27
2023-03-06T08:56:22.739Z,86.00
2023-03-06T08:58:50.112Z,85.95
2023-03-06T09:01:21.175Z,86.41
2023-03-06T09:03:49.055Z,84.45
2023-03-06T09:06:17.138Z,83.61
2023-03-06T09:08:44.692Z,83.72
2023-03-06T09:11:14.006Z,84.32
2023-03-06T09:13:42.123Z,84.76
2023-03-06T09:16:10.662Z,84.55
2023-03-06T09:18:37.609Z,83.96
2023-03-06T09:21:05.805Z,80.06
2023-03-06T09:23:32.940Z,79.04
2023-03-06T09:26:00.925Z,80.57
2023-03-06T09:28:28.558Z,79.72
2023-03-06T09:30:55.862Z,79.66
2023-03-06T09:33:23.154Z,80.48
2023-03-06T09:35:53.788Z,79.51
2023-03-06T09:38:22.785Z,79.24
2023-03-06T09:40:58.681Z,77.79
2023-03-06T09:43:31.513Z,75.38
2023-03-06T09:45:59.431Z,73.57
2023-03-06T09:48:44.159Z,71.82
2023-03-06T09:51:16.395Z,71.66
2023-03-06T09:54:11.990Z,68.24
2023-03-06T09:56:44.152Z,70.74
2023-03-06T09:59:20.121Z,69.44
2023-03-06T10:02:22.087Z,71.53
2023-03-06T10:04:59.537Z,70.67
2023-03-06T10:07:54.162Z,71.92
2023-03-06T10:10:25.739Z,71.24
2023-03-06T10:13:10.535Z,72.10
2023-03-06T10:15:41.623Z,70.67
2023-03-06T10:18:11.819Z,71.24
2023-03-06T10:21:18.446Z,70.26
2023-03-06T10:24:05.930Z,69.88
2023-03-06T10:26:39.977Z,69.75
2023-03-06T10:29:13.318Z,69.87
2023-03-06T10:31:49.620Z,70.39
2023-03-06T10:34:23.966Z,70.70
2023-03-06T10:36:51.161Z,71.71
2023-03-06T10:39:21.210Z,73.04
2023-03-06T10:41:49.078Z,73.05
2023-03-06T10:44:16.107Z,71.70
2023-03-06T10:46:47.987Z,73.49
2023-03-06T10:49:15.018Z,73.07
2023-03-06T10:51:56.360Z,73.68
2023-03-06T10:54:23.804Z,75.25
2023-03-06T10:56:50.622Z,74.41
2023-03-06T10:59:31.178Z,74.80
2023-03-06T11:02:13.818Z,74.95
2023-03-06T11:04:47.350Z,75.23
2023-03-06T11:07:14.669Z,75.07
2023-03-06T11:09:43.991Z,74.90
2023-03-06T11:12:25.845Z,75.35
2023-03-06T11:15:14.250Z,74.39
2023-03-06T11:18:04.426Z,74.42
2023-03-06T11:20:53.402Z,73.90
2023-03-06T11:23:38.090Z,71.91
2023-03-06T11:26:17.239Z,72.06
2023-03-06T11:28:54.752Z,71.76
2023-03-06T11:31:41.876Z,70.76
2023-03-06T11:34:11.615Z,71.47
2023-03-06T11:36:50.745Z,71.58
2023-03-06T11:39:34.349Z,71.22
2023-03-06T11:42:28.776Z,70.21
2023-03-06T11:45:07.498Z,69.70
2023-03-06T11:47:45.516Z,69.30
2023-03-06T11:50:18.305Z,69.15
2023-03-06T11:53:05.049Z,69.87
2023-03-06T11:55:40.830Z,68.31
2023-03-06T11:58:23.278Z,69.22
2023-03-06T12:01:08.115Z,69.81
2023-03-06T12:03:57.574Z,69.55
2023-03-06T12:06:48.957Z,69.59
2023-03-06T12:09:28.221Z,68.22
2023-03-06T12:11:57.813Z,67.94
2023-03-06T12:14:36.429Z,68.53
2023-03-06T12:17:31.403Z,67.00
2023-03-06T12:20:27.506Z,67.54
2023-03-06T12:23:15.376Z,66.04
2023-03-06T12:25:49.111Z,64.49
2023-03-06T12:28:24.865Z,64.56
2023-03-06T12:31:16.648Z,66.62
2023-03-06T12:33:43.395Z,68.65
2023-03-06T12:36:29.116Z,68.01
2023-03-06T12:39:14.392Z,67.10
2023-03-06T12:41:47.653Z,68.02
2023-03-06T12:44:36.329Z,66.40
2023-03-06T12:47:10.141Z,65.37
2023-03-06T12:49:41.529Z,67.72
2023-03-06T12:52:18.724Z,70.14
2023-03-06T12:54:48.746Z,71.37
2023-03-06T12:57:16.364Z,73.23
2023-03-06T12:59:48.544Z,73.31
2023-03-06T13:02:30.586Z,73.31
2023-03-06T13:05:09.099Z,74.00
2023-03-06T13:08:00.870Z,73.91
2023-03-06T13:10:32.225Z,73.75
2023-03-06T13:13:28.297Z,75.32
2023-03-06T13:16:09.929Z,76.08
2023-03-06T13:18:37.433Z,77.46
2023-03-06T13:21:04.949Z,77.33
2023-03-06T13:23:40.998Z,78.18
2023-03-06T13:26:14.990Z,78.51
2023-03-06T13:28:47.611Z,78.11
2023-03-06T13:31:28.105Z,78.70
2023-03-06T13:34:13.989Z,78.54
2023-03-06T13:36:40.752Z,78.46
2023-03-06T13:39:14.186Z,78.71
2023-03-06T13:41:57.057Z,79.77
2023-03-06T13:44:24.145Z,79.78
2023-03-06T13:47:01.848Z,80.72
2023-03-06T13:49:29.758Z,80.21
2023-03-06T13:52:09.673Z,80.43
2023-03-06T13:54:42.846Z,79.61
2023-03-06T13:57:35.579Z,79.63
2023-03-06T14:00:45.770Z,78.45
2023-03-06T14:03:30.537Z,78.10
2023-03-06T14:05:58.924Z,77.70
2023-03-06T14:08:30.549Z,77.34
2023-03-06T14:11:08.768Z,77.38
2023-03-06T14:13:47.421Z,78.12
2023-03-06T14:16:49.828Z,79.13
2023-03-06T14:19:19.189Z,79.72
2023-03-06T14:21:57.396Z,78.65
2023-03-06T14:24:36.840Z,79.12
2023-03-06T14:27:04.453Z,78.55
2023-03-06T14:29:33.264Z,79.47
2023-03-06T14:32:02.017Z,80.18
2023-03-06T14:34:40.632Z,80.83
2023-03-06T14:37:20.959Z,82.46
2023-03-06T14:39:47.866Z,82.26
2023-03-06T14:42:21.509Z,83.46
2023-03-06T14:44:49.954Z,84.61
2023-03-06T14:47:27.587Z,84.71
2023-03-06T14:50:29.891Z,84.27
2023-03-06T14:53:19.245Z,84.11
2023-03-06T14:56:06.930Z,84.03
2023-03-06T14:58:45.961Z,84.12
2023-03-06T15:01:14.709Z,85.28
2023-03-06T15:04:01.319Z,84.98
2023-03-06T15:06:39.819Z,85.16
2023-03-06T15:09:17.650Z,84.61
2023-03-06T15:12:20.077Z,83.89
2023-03-06T15:15:03.670Z,84.18
2023-03-06T15:17:32.615Z,84.11
2023-03-06T15:20:01.310Z,84.08
2023-03-06T15:22:39.186Z,83.47
2023-03-06T15:25:23.469Z,83.26
2023-03-06T15:27:53.933Z,83.03
2023-03-06T15:30:29.553Z,83.17
2023-03-06T15:33:24.337Z,82.81
2023-03-06T15:36:03.742Z,83.82
2023-03-06T15:38:41.879Z,83.60
2023-03-06T15:41:33.113Z,84.95
2023-03-06T15:44:01.616Z,85.53
2023-03-06T15:46:29.522Z,85.91
2023-03-06T15:49:03.149Z,86.20
2023-03-06T15:51:31.729Z,86.83
2023-03-06T15:54:11.128Z,86.89
2023-03-06T15:56:41.781Z,86.41
2023-03-06T15:59:16.900Z,86.24
2023-03-06T16:01:44.013Z,86.46
2023-03-06T16:04:10.838Z,86.49
2023-03-06T16:06:37.895Z,86.61
2023-03-06T16:09:05.892Z,86.86
2023-03-06T16:11:43.367Z,86.39
2023-03-06T16:14:23.470Z,87.41
2023-03-06T16:16:52.294Z,88.21
2023-03-06T16:19:27.140Z,89.02
2023-03-06T16:21:59.229Z,87.19
2023-03-06T16:24:26.650Z,88.08
2023-03-06T16:26:55.120Z,88.36
2023-03-06T16:29:25.595Z,88.75
2023-03-06T16:31:55.031Z,89.86
2023-03-06T16:34:21.972Z,90.43
2023-03-06T16:36:49.614Z,90.11
2023-03-06T16:39:18.997Z,89.75
2023-03-06T16:41:46.260Z,90.43
2023-03-06T16:44:13.525Z,89.98
2023-03-06T16:46:45.900Z,90.11
2023-03-06T16:49:23.722Z,90.44
2023-03-06T16:51:51.726Z,89.98
2023-03-06T16:54:18.973Z,88.83
2023-03-06T16:56:46.204Z,89.28
2023-03-06T16:59:13.217Z,90.05
2023-03-06T17:01:43.104Z,90.56
2023-03-06T17:04:10.712Z,90.87
2023-03-06T17:06:38.471Z,91.46
2023-03-06T17:09:05.351Z,91.32
2023-03-06T17:11:32.434Z,91.36
2023-03-06T17:13:59.260Z,91.63
2023-03-06T17:16:26.634Z,92.08
2023-03-06T17:18:54.958Z,92.67
2023-03-06T17:21:22.105Z,92.72
2023-03-06T17:23:50.818Z,93.04
2023-03-06T17:26:19.162Z,92.42
2023-03-06T17:28:47.072Z,93.60
2023-03-06T17:31:26.599Z,93.13
2023-03-06T17:33:59.263Z,92.92
2023-03-06T17:36:27.773Z,92.74
2023-03-06T17:38:56.626Z,93.31
2023-03-06T17:41:24.623Z,92.97
2023-03-06T17:43:53.100Z,92.71
2023-03-06T17:46:20.231Z,92.82
2023-03-06T17:48:47.051Z,93.49
2023-03-06T17:51:14.332Z,92.49
2023-03-06T17:53:41.257Z,93.21
2023-03-06T17:56:11.686Z,92.74
2023-03-06T17:58:38.596Z,93.25
2023-03-06T18:01:14.946Z,93.12
2023-03-06T18:03:46.253Z,92.89
2023-03-06T18:06:13.663Z,92.56
2023-03-06T18:08:41.071Z,93.21
2023-03-06T18:11:09.740Z,93.49
2023-03-06T18:13:39.911Z,93.57
2023-03-06T18:16:08.183Z,93.42
2023-03-06T18:18:35.679Z,93.35
2023-03-06T18:21:04.734Z,93.65
2023-03-06T18:23:31.691Z,94.15
2023-03-06T18:26:09.786Z,94.94
2023-03-06T18:28:36.798Z,94.06
2023-03-06T18:31:08.411Z,94.57
2023-03-06T18:33:35.444Z,93.87
2023-03-06T18:36:03.664Z,93.63
2023-03-06T18:38:31.096Z,94.24
2023-03-06T18:40:58.181Z,93.93
2023-03-06T18:43:24.922Z,93.68
2023-03-06T18:45:58.264Z,94.75
2023-03-06T18:48:25.325Z,95.11
2023-03-06T18:50:52.367Z,95.15
2023-03-06T18:53:20.320Z,94.43
2023-03-06T18:55:51.722Z,95.04
2023-03-06T18:58:19.000Z,98.22
2023-03-06T19:00:46.339Z,100.00
2023-03-06T19:03:13.218Z,100.00
2023-03-06T19:05:47.757Z,98.20
2023-03-06T19:08:16.687Z,99.70
2023-03-06T19:10:49.637Z,100.00
2023-03-06T19:13:16.510Z,100.00
2023-03-06T19:15:48.123Z,100.00
2023-03-06T19:18:18.005Z,100.00
2023-03-06T19:20:45.360Z,100.00
2023-03-06T19:23:12.230Z,100.00
2023-03-06T19:25:39.465Z,100.00
2023-03-06T19:28:06.315Z,100.00
2023-03-06T19:30:33.620Z,100.00
2023-03-06T19:33:00.402Z,100.00
2023-03-06T19:35:27.616Z,100.00
2023-03-06T19:37:54.448Z,100.00
2023-03-06T19:40:21.565Z,100.00
2023-03-06T19:42:48.606Z,100.00
2023-03-06T19:45:15.783Z,100.00
2023-03-06T19:47:42.637Z,100.00
2023-03-06T19:50:10.248Z,100.00
2023-03-06T19:52:38.380Z,100.00
2023-03-06T19:55:06.691Z,100.00
2023-03-06T19:57:33.524Z,100.00
2023-03-06T20:00:01.838Z,100.00
2023-03-06T20:02:29.095Z,100.00
2023-03-06T20:04:56.293Z,100.00
2023-03-06T20:07:23.201Z,100.00
2023-03-06T20:09:50.299Z,100.00
2023-03-06T20:12:17.147Z,100.00
2023-03-06T20:14:46.068Z,100.00
2023-03-06T20:17:12.929Z,100.00
2023-03-06T20:19:40.226Z,100.00
2023-03-06T20:22:07.031Z,100.00
2023-03-06T20:24:34.078Z,100.00
2023-03-06T20:27:00.948Z,100.00
2023-03-06T20:29:28.440Z,100.00
2023-03-06T20:31:57.518Z,100.00
2023-03-06T20:34:25.793Z,100.00
2023-03-06T20:36:53.067Z,100.00
2023-03-06T20:39:24.060Z,100.00
2023-03-06T20:41:50.924Z,100.00
2023-03-06T20:44:21.108Z,100.00
2023-03-06T20:46:47.921Z,100.00
2023-03-06T20:49:15.187Z,100.00
2023-03-06T20:51:42.325Z,100.00
2023-03-06T20:54:13.122Z,100.00
2023-03-06T20:56:41.370Z,100.00
2023-03-06T20:59:11.754Z,100.00
2023-03-06T21:01:41.726Z,100.00
2023-03-06T21:04:10.961Z,100.00
2023-03-06T21:06:38.222Z,100.00
2023-03-06T21:09:06.780Z,100.00
2023-03-06T21:11:35.085Z,100.00
2023-03-06T21:14:02.364Z,100.00
2023-03-06T21:16:33.027Z,100.00
2023-03-06T21:19:00.585Z,100.00
2023-03-06T21:21:31.238Z,100.00
2023-03-06T21:23:58.416Z,100.00
2023-03-06T21:26:28.852Z,100.00
2023-03-06T21:28:58.888Z,100.00
2023-03-06T21:31:28.608Z,100.00
2023-03-06T21:33:55.981Z,100.00
2023-03-06T21:36:23.513Z,100.00
2023-03-06T21:38:52.450Z,100.00
2023-03-06T21:41:30.428Z,100.00
2023-03-06T21:44:00.086Z,100.00
2023-03-06T21:46:27.934Z,100.00
2023-03-06T21:48:56.000Z,100.00
2023-03-06T21:51:23.759Z,100.00
2023-03-06T21:53:52.073Z,100.00
2023-03-06T21:56:21.598Z,100.00
2023-03-06T21:58:48.744Z,100.00
2023-03-06T22:01:22.250Z,100.00
2023-03-06T22:03:49.337Z,100.00
2023-03-06T22:06:22.059Z,100.00
2023-03-06T22:08:49.476Z,100.00
2023-03-06T22:11:18.990Z,100.00
2023-03-06T22:13:48.149Z,100.00
2023-03-06T22:16:15.945Z,100.00
2023-03-06T22:18:48.066Z,100.00
2023-03-06T22:21:17.488Z,100.00
2023-03-06T22:23:48.243Z,100.00
2023-03-06T22:26:15.457Z,100.00
2023-03-06T22:28:42.560Z,100.00
2023-03-06T22:31:18.644Z,100.00
2023-03-06T22:33:46.205Z,100.00
2023-03-06T22:36:15.227Z,100.00
2023-03-06T22:38:44.823Z,100.00
2023-03-06T22:41:13.702Z,100.00
2023-03-06T22:43:40.887Z,100.00
2023-03-06T22:46:11.333Z,100.00
2023-03-06T22:48:38.578Z,100.00
2023-03-06T22:51:08.621Z,100.00
2023-03-06T22:53:36.428Z,100.00
2023-03-06T22:56:05.382Z,100.00
2023-03-06T22:58:36.995Z,100.00
2023-03-06T23:01:12.122Z,100.00
2023-03-06T23:03:41.886Z,100.00
2023-03-06T23:06:14.427Z,100.00
2023-03-06T23:08:42.508Z,100.00
2023-03-06T23:11:12.018Z,100.00
2023-03-06T23:13:39.150Z,100.00
2023-03-06T23:16:10.423Z,100.00
2023-03-06T23:18:39.487Z,100.00
2023-03-06T23:21:15.920Z,100.00
2023-03-06T23:23:44.334Z,100.00
2023-03-06T23:26:14.720Z,100.00
2023-03-06T23:28:42.171Z,100.00
2023-03-06T23:31:15.061Z,100.00
2023-03-06T23:33:42.620Z,100.00
2023-03-06T23:36:12.262Z,100.00
2023-03-06T23:38:39.632Z,100.00
2023-03-06T23:41:09.078Z,100.00
2023-03-06T23:43:36.459Z,100.00
2023-03-06T23:46:03.939Z,100.00
2023-03-06T23:48:31.543Z,100.00
2023-03-06T23:50:58.515Z,100.00
2023-03-06T23:53:26.098Z,100.00
2023-03-06T23:55:52.922Z,100.00
2023-03-06T23:58:20.154Z,100.00
